Weather at Air Park South Airport

Public forecast

Using degrees Fahrenheit for public forecast. Weather courtesy of forecast.io.

Closest aviation weather report (METAR) to Air Park South Airport

Closest report is Springfield Branson National Airport, 13.4 nm (24.8 km) NNW. Retrieved 2022/01/29 12:52 UTC (1 hour ago):

KSGF 291252Z 16010KT 10SM CLR M07/M12 A3022 RMK AO2 SLP250 T10671117

Closest aviation forecast (TAF) to Air Park South Airport

Closest forecast is Springfield Branson National Airport, 13.4 nm (24.8 km) NNW. Retrieved 2022/01/29 12:27 UTC (1 hour ago):

TAF KSGF 291124Z 2912/3012 18009KT P6SM SKC FM291500 19012G20KT P6SM SKC FM291700 22014G22KT P6SM SKC FM300000 25007KT P6SM SKC FM300800 29006KT P6SM SKC